Aeroporto :
LOGIN :

Iscrizione | Disclaimer

   EN    FR    IT 

 










Sommario :    VFR   VFR Marginale   IFR   IFR Intensivo   IFR Molto Intensivo
Visibilità : 
Base nubi : 
>= 8 km
>= 3000ft
5 / 8 km
1000 / 3000 ft
1500m / 5 km
500 / 1000 ft
800 / 1500m
200 / 500 ft
< 800m
< 200 ft
Simboli :   Temporali  Nebbia  Neve Forte  Precipitazioni Forti  Vento > 20 kt
SIGMETs :   Varie  Temporali  Ghiacco  Turbolenza  Onda orograficha  Ceneri Vulcaniche






- Altitudine del aeroporto : 6 ft
- Codice IATA : PSA


LIRP - Galileo Galilei Pisa

ULTIMO METAR :
  • 240515Z 15004KT CAVOK 03/03 Q1026 NOSIG

METARs OBSOLETI :
  • 240445Z 12004KT CAVOK 03/03 Q1026 NOSIG
  • 240415Z 14004KT CAVOK 03/03 Q1026 NOSIG
  • 240345Z 14004KT CAVOK 04/04 Q1026 NOSIG
  • 240315Z 14004KT CAVOK 04/04 Q1026 NOSIG

TAF TAF LIRP
Valido dal 24 a 06 ore il 25 a 06 ore UTC


240500Z 2406/2506 12006KT CAVOK
BECMG 2406/2408 9999 SCT020 BKN050
BECMG 2416/2418 12012KT
TEMPO 2418/2506 3000 RA BR BKN020 BKN040



MetMap, La meteo Aeronautica in un colpo d'occhio ! - Copyright ORBIFLY Dicembre 2007 - Disclaimer

ORBIFLY MET'MAP TEAM :

Programmazione e sviluppo : Alexandra Zaïnal
Concezione : Baudouin d'Aumeries
Aiuto per la programmazione : Marc-Olivier Méhu
Supporto tecnico e logistico : Manuel Goepfert
Aiuto per la traduzione : Arnaldo La Scala

Contatto : metmap@orbifly.com




FONTI E CREDITI :

   NOAA